sensor_id;sensor_type;location;lat;lon;timestamp;P1;durP1;ratioP1;P2;durP2;ratioP2
32912;SDS011;19266;45.580;-122.680;2022-09-01T00:00:25;18.85;;;12.73;;
32912;SDS011;19266;45.580;-122.680;2022-09-01T00:02:56;18.52;;;11.60;;
32912;SDS011;19266;45.580;-122.680;2022-09-01T00:05:25;19.30;;;12.75;;
32912;SDS011;19266;45.580;-122.680;2022-09-01T00:07:54;20.08;;;12.33;;
32912;SDS011;19266;45.580;-122.680;2022-09-01T00:10:23;16.73;;;12.18;;
32912;SDS011;19266;45.580;-122.680;2022-09-01T00:12:53;19.23;;;12.78;;
32912;SDS011;19266;45.580;-122.680;2022-09-01T00:15:22;18.40;;;12.75;;
32912;SDS011;19266;45.580;-122.680;2022-09-01T00:17:51;17.32;;;12.45;;
32912;SDS011;19266;45.580;-122.680;2022-09-01T00:20:20;19.57;;;13.65;;
32912;SDS011;19266;45.580;-122.680;2022-09-01T00:22:49;16.75;;;13.78;;
32912;SDS011;19266;45.580;-122.680;2022-09-01T00:25:18;24.47;;;13.35;;
32912;SDS011;19266;45.580;-122.680;2022-09-01T00:27:47;19.17;;;13.65;;
32912;SDS011;19266;45.580;-122.680;2022-09-01T00:30:17;20.90;;;13.55;;
32912;SDS011;19266;45.580;-122.680;2022-09-01T00:32:46;18.57;;;13.53;;
32912;SDS011;19266;45.580;-122.680;2022-09-01T00:35:16;19.98;;;13.78;;
32912;SDS011;19266;45.580;-122.680;2022-09-01T00:37:47;20.55;;;13.32;;
32912;SDS011;19266;45.580;-122.680;2022-09-01T00:40:16;20.37;;;13.53;;
32912;SDS011;19266;45.580;-122.680;2022-09-01T00:42:45;21.45;;;13.48;;
32912;SDS011;19266;45.580;-122.680;2022-09-01T00:45:16;22.67;;;13.13;;
32912;SDS011;19266;45.580;-122.680;2022-09-01T00:47:47;21.30;;;13.43;;
32912;SDS011;19266;45.580;-122.680;2022-09-01T00:50:17;22.07;;;13.70;;
32912;SDS011;19266;45.580;-122.680;2022-09-01T00:52:50;17.62;;;13.22;;
32912;SDS011;19266;45.580;-122.680;2022-09-01T00:55:29;26.00;;;13.45;;
32912;SDS011;19266;45.580;-122.680;2022-09-01T00:57:52;32.58;;;14.00;;
32912;SDS011;19266;45.580;-122.680;2022-09-01T01:00:23;22.02;;;13.32;;
32912;SDS011;19266;45.580;-122.680;2022-09-01T01:02:52;17.48;;;13.25;;
32912;SDS011;19266;45.580;-122.680;2022-09-01T01:05:23;23.83;;;13.40;;
32912;SDS011;19266;45.580;-122.680;2022-09-01T01:07:53;17.42;;;13.43;;
32912;SDS011;19266;45.580;-122.680;2022-09-01T01:10:23;18.95;;;13.43;;
32912;SDS011;19266;45.580;-122.680;2022-09-01T01:12:53;24.00;;;13.70;;
32912;SDS011;19266;45.580;-122.680;2022-09-01T01:15:23;27.30;;;14.00;;
32912;SDS011;19266;45.580;-122.680;2022-09-01T01:17:52;20.50;;;14.03;;
32912;SDS011;19266;45.580;-122.680;2022-09-01T01:20:23;20.12;;;14.45;;
32912;SDS011;19266;45.580;-122.680;2022-09-01T01:23:11;22.02;;;14.18;;
32912;SDS011;19266;45.580;-122.680;2022-09-01T01:25:45;25.62;;;15.30;;
32912;SDS011;19266;45.580;-122.680;2022-09-01T01:28:14;21.82;;;14.28;;
32912;SDS011;19266;45.580;-122.680;2022-09-01T01:30:45;17.87;;;8.10;;
32912;SDS011;19266;45.580;-122.680;2022-09-01T01:33:17;11.80;;;5.10;;
32912;SDS011;19266;45.580;-122.680;2022-09-01T01:35:46;7.30;;;4.30;;
32912;SDS011;19266;45.580;-122.680;2022-09-01T01:38:17;6.53;;;3.92;;
32912;SDS011;19266;45.580;-122.680;2022-09-01T01:40:48;6.33;;;4.00;;
32912;SDS011;19266;45.580;-122.680;2022-09-01T01:43:18;8.20;;;3.50;;
32912;SDS011;19266;45.580;-122.680;2022-09-01T01:45:49;7.72;;;3.25;;
32912;SDS011;19266;45.580;-122.680;2022-09-01T01:48:20;8.83;;;3.20;;
32912;SDS011;19266;45.580;-122.680;2022-09-01T01:50:50;6.15;;;3.25;;
32912;SDS011;19266;45.580;-122.680;2022-09-01T01:53:20;6.33;;;2.70;;
32912;SDS011;19266;45.580;-122.680;2022-09-01T01:55:49;3.62;;;2.70;;
32912;SDS011;19266;45.580;-122.680;2022-09-01T01:58:19;7.03;;;2.83;;
32912;SDS011;19266;45.580;-122.680;2022-09-01T02:00:48;5.45;;;2.75;;
32912;SDS011;19266;45.580;-122.680;2022-09-01T02:03:18;5.12;;;2.60;;
32912;SDS011;19266;45.580;-122.680;2022-09-01T02:05:49;7.67;;;2.50;;
32912;SDS011;19266;45.580;-122.680;2022-09-01T02:08:19;6.03;;;2.50;;
32912;SDS011;19266;45.580;-122.680;2022-09-01T02:10:50;6.50;;;2.47;;
32912;SDS011;19266;45.580;-122.680;2022-09-01T02:13:19;3.80;;;2.52;;
32912;SDS011;19266;45.580;-122.680;2022-09-01T02:15:50;4.90;;;2.40;;
32912;SDS011;19266;45.580;-122.680;2022-09-01T02:18:25;6.63;;;2.43;;
32912;SDS011;19266;45.580;-122.680;2022-09-01T02:20:55;3.45;;;2.40;;
32912;SDS011;19266;45.580;-122.680;2022-09-01T02:23:25;3.22;;;2.30;;
32912;SDS011;19266;45.580;-122.680;2022-09-01T02:25:56;3.45;;;2.77;;
32912;SDS011;19266;45.580;-122.680;2022-09-01T02:28:26;2.60;;;2.25;;
32912;SDS011;19266;45.580;-122.680;2022-09-01T02:30:55;5.42;;;2.37;;
32912;SDS011;19266;45.580;-122.680;2022-09-01T02:33:26;2.40;;;2.20;;
32912;SDS011;19266;45.580;-122.680;2022-09-01T02:35:55;3.52;;;2.05;;
32912;SDS011;19266;45.580;-122.680;2022-09-01T02:38:25;5.95;;;2.33;;
32912;SDS011;19266;45.580;-122.680;2022-09-01T02:40:56;4.25;;;2.30;;
32912;SDS011;19266;45.580;-122.680;2022-09-01T02:43:25;3.75;;;2.30;;
32912;SDS011;19266;45.580;-122.680;2022-09-01T02:45:55;4.53;;;2.30;;
32912;SDS011;19266;45.580;-122.680;2022-09-01T02:48:27;3.85;;;2.47;;
32912;SDS011;19266;45.580;-122.680;2022-09-01T02:50:58;3.83;;;2.10;;
32912;SDS011;19266;45.580;-122.680;2022-09-01T02:53:29;3.80;;;2.40;;
32912;SDS011;19266;45.580;-122.680;2022-09-01T02:55:59;4.42;;;2.40;;
32912;SDS011;19266;45.580;-122.680;2022-09-01T02:58:29;3.37;;;2.40;;
32912;SDS011;19266;45.580;-122.680;2022-09-01T03:01:00;5.78;;;2.50;;
32912;SDS011;19266;45.580;-122.680;2022-09-01T03:03:29;3.60;;;2.50;;
32912;SDS011;19266;45.580;-122.680;2022-09-01T03:05:59;3.60;;;2.47;;
32912;SDS011;19266;45.580;-122.680;2022-09-01T03:08:28;3.65;;;2.60;;
32912;SDS011;19266;45.580;-122.680;2022-09-01T03:10:58;2.85;;;2.60;;
32912;SDS011;19266;45.580;-122.680;2022-09-01T03:13:28;3.67;;;2.65;;
32912;SDS011;19266;45.580;-122.680;2022-09-01T03:15:58;5.62;;;2.90;;
32912;SDS011;19266;45.580;-122.680;2022-09-01T03:18:27;4.28;;;2.60;;
32912;SDS011;19266;45.580;-122.680;2022-09-01T03:20:56;5.15;;;3.00;;
32912;SDS011;19266;45.580;-122.680;2022-09-01T03:23:25;5.12;;;2.60;;
32912;SDS011;19266;45.580;-122.680;2022-09-01T03:25:54;4.37;;;3.05;;
32912;SDS011;19266;45.580;-122.680;2022-09-01T03:28:24;6.60;;;2.70;;
32912;SDS011;19266;45.580;-122.680;2022-09-01T03:30:54;3.55;;;2.60;;
32912;SDS011;19266;45.580;-122.680;2022-09-01T03:33:24;4.70;;;2.55;;
32912;SDS011;19266;45.580;-122.680;2022-09-01T03:35:53;4.08;;;2.83;;
32912;SDS011;19266;45.580;-122.680;2022-09-01T03:38:23;6.40;;;2.98;;
32912;SDS011;19266;45.580;-122.680;2022-09-01T03:40:53;3.47;;;3.08;;
32912;SDS011;19266;45.580;-122.680;2022-09-01T03:43:24;3.47;;;3.17;;
32912;SDS011;19266;45.580;-122.680;2022-09-01T03:45:54;4.08;;;3.10;;
32912;SDS011;19266;45.580;-122.680;2022-09-01T03:48:26;5.15;;;3.20;;
32912;SDS011;19266;45.580;-122.680;2022-09-01T03:50:56;6.22;;;3.30;;
32912;SDS011;19266;45.580;-122.680;2022-09-01T03:53:26;7.67;;;3.10;;
32912;SDS011;19266;45.580;-122.680;2022-09-01T03:55:56;11.65;;;4.08;;
32912;SDS011;19266;45.580;-122.680;2022-09-01T03:58:25;7.10;;;3.70;;
32912;SDS011;19266;45.580;-122.680;2022-09-01T04:00:55;5.40;;;3.55;;
32912;SDS011;19266;45.580;-122.680;2022-09-01T04:03:26;5.03;;;3.55;;
32912;SDS011;19266;45.580;-122.680;2022-09-01T04:05:56;6.10;;;3.50;;
32912;SDS011;19266;45.580;-122.680;2022-09-01T04:08:27;4.45;;;3.45;;
32912;SDS011;19266;45.580;-122.680;2022-09-01T04:10:58;5.33;;;3.90;;
32912;SDS011;19266;45.580;-122.680;2022-09-01T04:13:30;4.75;;;3.50;;
32912;SDS011;19266;45.580;-122.680;2022-09-01T04:16:00;8.40;;;3.80;;
32912;SDS011;19266;45.580;-122.680;2022-09-01T04:18:29;6.95;;;3.70;;
32912;SDS011;19266;45.580;-122.680;2022-09-01T04:20:58;5.45;;;3.92;;
32912;SDS011;19266;45.580;-122.680;2022-09-01T04:23:32;9.03;;;4.17;;
32912;SDS011;19266;45.580;-122.680;2022-09-01T04:26:05;8.10;;;4.12;;
32912;SDS011;19266;45.580;-122.680;2022-09-01T04:28:44;5.10;;;4.10;;
32912;SDS011;19266;45.580;-122.680;2022-09-01T04:31:09;4.60;;;3.80;;
32912;SDS011;19266;45.580;-122.680;2022-09-01T04:33:39;6.17;;;3.87;;
32912;SDS011;19266;45.580;-122.680;2022-09-01T04:36:19;4.67;;;3.90;;
32912;SDS011;19266;45.580;-122.680;2022-09-01T04:38:45;5.97;;;4.08;;
32912;SDS011;19266;45.580;-122.680;2022-09-01T04:41:15;6.85;;;4.30;;
32912;SDS011;19266;45.580;-122.680;2022-09-01T04:44:01;6.80;;;4.00;;
32912;SDS011;19266;45.580;-122.680;2022-09-01T04:46:18;5.58;;;4.40;;
32912;SDS011;19266;45.580;-122.680;2022-09-01T04:48:50;6.00;;;4.12;;
32912;SDS011;19266;45.580;-122.680;2022-09-01T04:51:18;7.03;;;4.10;;
32912;SDS011;19266;45.580;-122.680;2022-09-01T04:53:48;4.97;;;4.10;;
32912;SDS011;19266;45.580;-122.680;2022-09-01T04:56:18;7.00;;;4.50;;
32912;SDS011;19266;45.580;-122.680;2022-09-01T04:58:49;6.58;;;4.20;;
32912;SDS011;19266;45.580;-122.680;2022-09-01T05:01:21;5.85;;;4.10;;
32912;SDS011;19266;45.580;-122.680;2022-09-01T05:03:51;6.22;;;4.58;;
32912;SDS011;19266;45.580;-122.680;2022-09-01T05:06:25;5.35;;;4.20;;
32912;SDS011;19266;45.580;-122.680;2022-09-01T05:08:54;6.60;;;4.20;;
32912;SDS011;19266;45.580;-122.680;2022-09-01T05:11:26;6.53;;;4.70;;
32912;SDS011;19266;45.580;-122.680;2022-09-01T05:13:55;6.47;;;4.53;;
32912;SDS011;19266;45.580;-122.680;2022-09-01T05:16:24;6.90;;;4.53;;
32912;SDS011;19266;45.580;-122.680;2022-09-01T05:18:54;6.08;;;4.80;;
32912;SDS011;19266;45.580;-122.680;2022-09-01T05:21:24;5.87;;;4.62;;
32912;SDS011;19266;45.580;-122.680;2022-09-01T05:23:56;14.85;;;4.90;;
32912;SDS011;19266;45.580;-122.680;2022-09-01T05:26:26;6.67;;;4.40;;
32912;SDS011;19266;45.580;-122.680;2022-09-01T05:28:56;7.58;;;4.62;;
32912;SDS011;19266;45.580;-122.680;2022-09-01T05:31:26;8.75;;;4.67;;
32912;SDS011;19266;45.580;-122.680;2022-09-01T05:33:55;6.10;;;4.55;;
32912;SDS011;19266;45.580;-122.680;2022-09-01T05:36:24;6.33;;;4.78;;
32912;SDS011;19266;45.580;-122.680;2022-09-01T05:38:55;6.40;;;4.40;;
32912;SDS011;19266;45.580;-122.680;2022-09-01T05:41:26;6.42;;;4.50;;
32912;SDS011;19266;45.580;-122.680;2022-09-01T05:44:02;10.65;;;4.78;;
32912;SDS011;19266;45.580;-122.680;2022-09-01T05:46:34;6.60;;;4.50;;
32912;SDS011;19266;45.580;-122.680;2022-09-01T05:49:04;6.20;;;4.78;;
32912;SDS011;19266;45.580;-122.680;2022-09-01T05:51:35;5.53;;;4.72;;
32912;SDS011;19266;45.580;-122.680;2022-09-01T05:54:04;7.62;;;5.12;;
32912;SDS011;19266;45.580;-122.680;2022-09-01T05:56:34;6.67;;;5.12;;
32912;SDS011;19266;45.580;-122.680;2022-09-01T05:59:05;8.60;;;5.30;;
32912;SDS011;19266;45.580;-122.680;2022-09-01T06:01:35;11.90;;;5.42;;
32912;SDS011;19266;45.580;-122.680;2022-09-01T06:04:05;7.50;;;5.22;;
32912;SDS011;19266;45.580;-122.680;2022-09-01T06:06:45;6.75;;;4.80;;
32912;SDS011;19266;45.580;-122.680;2022-09-01T06:09:05;8.78;;;5.45;;
32912;SDS011;19266;45.580;-122.680;2022-09-01T06:11:35;9.08;;;5.28;;
32912;SDS011;19266;45.580;-122.680;2022-09-01T06:14:04;7.40;;;5.40;;
32912;SDS011;19266;45.580;-122.680;2022-09-01T06:16:35;9.58;;;5.83;;
32912;SDS011;19266;45.580;-122.680;2022-09-01T06:19:04;8.85;;;5.75;;
32912;SDS011;19266;45.580;-122.680;2022-09-01T06:21:34;8.08;;;5.95;;
32912;SDS011;19266;45.580;-122.680;2022-09-01T06:24:03;10.20;;;6.30;;
32912;SDS011;19266;45.580;-122.680;2022-09-01T06:26:34;11.73;;;5.92;;
32912;SDS011;19266;45.580;-122.680;2022-09-01T06:29:04;9.45;;;5.97;;
32912;SDS011;19266;45.580;-122.680;2022-09-01T06:31:34;12.10;;;5.90;;
32912;SDS011;19266;45.580;-122.680;2022-09-01T06:34:05;8.23;;;6.28;;
32912;SDS011;19266;45.580;-122.680;2022-09-01T06:36:36;7.47;;;5.58;;
32912;SDS011;19266;45.580;-122.680;2022-09-01T06:39:07;10.18;;;6.55;;
32912;SDS011;19266;45.580;-122.680;2022-09-01T06:41:36;9.70;;;5.90;;
32912;SDS011;19266;45.580;-122.680;2022-09-01T06:44:06;8.00;;;5.95;;
32912;SDS011;19266;45.580;-122.680;2022-09-01T06:46:36;10.30;;;6.05;;
32912;SDS011;19266;45.580;-122.680;2022-09-01T06:49:06;11.00;;;6.60;;
32912;SDS011;19266;45.580;-122.680;2022-09-01T06:51:36;11.57;;;6.35;;
32912;SDS011;19266;45.580;-122.680;2022-09-01T06:54:05;9.50;;;6.50;;
32912;SDS011;19266;45.580;-122.680;2022-09-01T06:56:34;11.33;;;6.72;;
32912;SDS011;19266;45.580;-122.680;2022-09-01T06:59:03;10.38;;;6.97;;
32912;SDS011;19266;45.580;-122.680;2022-09-01T07:01:36;10.72;;;7.40;;
32912;SDS011;19266;45.580;-122.680;2022-09-01T07:04:06;11.53;;;7.12;;
32912;SDS011;19266;45.580;-122.680;2022-09-01T07:06:35;11.70;;;7.33;;
32912;SDS011;19266;45.580;-122.680;2022-09-01T07:09:05;9.33;;;6.92;;
32912;SDS011;19266;45.580;-122.680;2022-09-01T07:11:34;13.98;;;6.55;;
32912;SDS011;19266;45.580;-122.680;2022-09-01T07:14:04;10.08;;;6.92;;
32912;SDS011;19266;45.580;-122.680;2022-09-01T07:16:34;10.38;;;6.70;;
32912;SDS011;19266;45.580;-122.680;2022-09-01T07:19:05;9.78;;;6.72;;
32912;SDS011;19266;45.580;-122.680;2022-09-01T07:21:36;10.68;;;6.83;;
32912;SDS011;19266;45.580;-122.680;2022-09-01T07:24:05;8.93;;;6.65;;
32912;SDS011;19266;45.580;-122.680;2022-09-01T07:26:35;11.70;;;6.80;;
32912;SDS011;19266;45.580;-122.680;2022-09-01T07:29:04;9.18;;;6.30;;
32912;SDS011;19266;45.580;-122.680;2022-09-01T07:31:35;11.05;;;6.78;;
32912;SDS011;19266;45.580;-122.680;2022-09-01T07:34:06;9.70;;;6.70;;
32912;SDS011;19266;45.580;-122.680;2022-09-01T07:36:37;11.75;;;7.25;;
32912;SDS011;19266;45.580;-122.680;2022-09-01T07:39:06;10.85;;;6.67;;
32912;SDS011;19266;45.580;-122.680;2022-09-01T07:41:35;9.00;;;6.42;;
32912;SDS011;19266;45.580;-122.680;2022-09-01T07:44:06;9.13;;;6.78;;
32912;SDS011;19266;45.580;-122.680;2022-09-01T07:46:37;11.25;;;6.70;;
32912;SDS011;19266;45.580;-122.680;2022-09-01T07:49:06;8.78;;;6.42;;
32912;SDS011;19266;45.580;-122.680;2022-09-01T07:51:35;9.75;;;6.97;;
32912;SDS011;19266;45.580;-122.680;2022-09-01T07:54:04;10.70;;;6.87;;
32912;SDS011;19266;45.580;-122.680;2022-09-01T07:56:34;10.03;;;6.90;;
32912;SDS011;19266;45.580;-122.680;2022-09-01T07:59:04;10.93;;;7.28;;
32912;SDS011;19266;45.580;-122.680;2022-09-01T08:01:33;8.73;;;6.53;;
32912;SDS011;19266;45.580;-122.680;2022-09-01T08:04:03;10.48;;;6.78;;
32912;SDS011;19266;45.580;-122.680;2022-09-01T08:06:32;9.73;;;6.95;;
32912;SDS011;19266;45.580;-122.680;2022-09-01T08:09:02;11.28;;;6.90;;
32912;SDS011;19266;45.580;-122.680;2022-09-01T08:11:32;10.55;;;6.67;;
32912;SDS011;19266;45.580;-122.680;2022-09-01T08:14:02;11.65;;;7.12;;
32912;SDS011;19266;45.580;-122.680;2022-09-01T08:16:31;10.05;;;6.80;;
32912;SDS011;19266;45.580;-122.680;2022-09-01T08:19:00;10.53;;;6.92;;
32912;SDS011;19266;45.580;-122.680;2022-09-01T08:21:29;11.28;;;7.22;;
32912;SDS011;19266;45.580;-122.680;2022-09-01T08:23:58;9.65;;;7.10;;
32912;SDS011;19266;45.580;-122.680;2022-09-01T08:26:27;9.25;;;7.08;;
32912;SDS011;19266;45.580;-122.680;2022-09-01T08:28:56;10.70;;;7.40;;
32912;SDS011;19266;45.580;-122.680;2022-09-01T08:31:26;10.20;;;6.85;;
32912;SDS011;19266;45.580;-122.680;2022-09-01T08:33:55;17.77;;;7.12;;
32912;SDS011;19266;45.580;-122.680;2022-09-01T08:36:25;19.02;;;7.10;;
32912;SDS011;19266;45.580;-122.680;2022-09-01T08:38:54;15.48;;;6.92;;
32912;SDS011;19266;45.580;-122.680;2022-09-01T08:41:31;11.45;;;6.80;;
32912;SDS011;19266;45.580;-122.680;2022-09-01T08:44:12;10.75;;;7.10;;
32912;SDS011;19266;45.580;-122.680;2022-09-01T08:46:38;11.03;;;7.20;;
32912;SDS011;19266;45.580;-122.680;2022-09-01T08:49:13;12.05;;;7.28;;
32912;SDS011;19266;45.580;-122.680;2022-09-01T08:51:41;9.03;;;6.78;;
32912;SDS011;19266;45.580;-122.680;2022-09-01T08:54:10;11.08;;;7.10;;
32912;SDS011;19266;45.580;-122.680;2022-09-01T08:56:39;10.45;;;7.10;;
32912;SDS011;19266;45.580;-122.680;2022-09-01T08:59:08;12.07;;;7.55;;
32912;SDS011;19266;45.580;-122.680;2022-09-01T09:01:41;9.68;;;7.08;;
32912;SDS011;19266;45.580;-122.680;2022-09-01T09:04:12;10.23;;;7.00;;
32912;SDS011;19266;45.580;-122.680;2022-09-01T09:06:42;11.83;;;6.97;;
32912;SDS011;19266;45.580;-122.680;2022-09-01T09:09:10;11.83;;;7.55;;
32912;SDS011;19266;45.580;-122.680;2022-09-01T09:12:03;11.15;;;7.20;;
32912;SDS011;19266;45.580;-122.680;2022-09-01T09:14:36;14.55;;;7.85;;
32912;SDS011;19266;45.580;-122.680;2022-09-01T09:17:04;13.83;;;7.90;;
32912;SDS011;19266;45.580;-122.680;2022-09-01T09:19:33;13.93;;;8.38;;
32912;SDS011;19266;45.580;-122.680;2022-09-01T09:22:03;11.50;;;7.87;;
32912;SDS011;19266;45.580;-122.680;2022-09-01T09:29:54;10.45;;;8.03;;
32912;SDS011;19266;45.580;-122.680;2022-09-01T09:32:24;16.85;;;7.55;;
32912;SDS011;19266;45.580;-122.680;2022-09-01T09:34:53;12.23;;;7.40;;
32912;SDS011;19266;45.580;-122.680;2022-09-01T09:37:24;10.85;;;7.37;;
32912;SDS011;19266;45.580;-122.680;2022-09-01T09:40:06;10.38;;;7.22;;
32912;SDS011;19266;45.580;-122.680;2022-09-01T09:42:42;11.65;;;7.37;;
32912;SDS011;19266;45.580;-122.680;2022-09-01T09:45:52;12.95;;;7.60;;
32912;SDS011;19266;45.580;-122.680;2022-09-01T09:47:40;10.82;;;7.50;;
32912;SDS011;19266;45.580;-122.680;2022-09-01T09:50:13;9.95;;;7.60;;
32912;SDS011;19266;45.580;-122.680;2022-09-01T09:52:43;11.45;;;7.78;;
32912;SDS011;19266;45.580;-122.680;2022-09-01T09:57:48;9.95;;;7.50;;
32912;SDS011;19266;45.580;-122.680;2022-09-01T10:00:19;10.80;;;7.47;;
32912;SDS011;19266;45.580;-122.680;2022-09-01T10:03:01;9.93;;;7.62;;
32912;SDS011;19266;45.580;-122.680;2022-09-01T10:05:44;10.78;;;7.78;;
32912;SDS011;19266;45.580;-122.680;2022-09-01T10:10:58;11.60;;;7.53;;
32912;SDS011;19266;45.580;-122.680;2022-09-01T10:13:27;9.68;;;7.15;;
32912;SDS011;19266;45.580;-122.680;2022-09-01T10:16:06;11.03;;;7.72;;
32912;SDS011;19266;45.580;-122.680;2022-09-01T10:18:32;12.63;;;8.10;;
32912;SDS011;19266;45.580;-122.680;2022-09-01T10:21:07;9.88;;;7.17;;
32912;SDS011;19266;45.580;-122.680;2022-09-01T10:23:34;11.88;;;7.70;;
32912;SDS011;19266;45.580;-122.680;2022-09-01T10:26:12;12.18;;;7.97;;
32912;SDS011;19266;45.580;-122.680;2022-09-01T10:28:36;11.57;;;7.50;;
32912;SDS011;19266;45.580;-122.680;2022-09-01T10:31:05;11.55;;;8.23;;
32912;SDS011;19266;45.580;-122.680;2022-09-01T10:33:35;9.78;;;7.35;;
32912;SDS011;19266;45.580;-122.680;2022-09-01T10:36:04;11.80;;;7.97;;
32912;SDS011;19266;45.580;-122.680;2022-09-01T10:38:33;12.30;;;8.00;;
32912;SDS011;19266;45.580;-122.680;2022-09-01T10:41:03;11.73;;;7.78;;
32912;SDS011;19266;45.580;-122.680;2022-09-01T10:43:47;12.82;;;8.00;;
32912;SDS011;19266;45.580;-122.680;2022-09-01T10:48:54;15.03;;;8.60;;
32912;SDS011;19266;45.580;-122.680;2022-09-01T10:53:54;12.93;;;8.73;;
32912;SDS011;19266;45.580;-122.680;2022-09-01T10:56:46;12.07;;;8.35;;
32912;SDS011;19266;45.580;-122.680;2022-09-01T11:09:42;14.13;;;8.93;;
32912;SDS011;19266;45.580;-122.680;2022-09-01T11:14:46;15.03;;;9.03;;
32912;SDS011;19266;45.580;-122.680;2022-09-01T11:19:46;15.28;;;9.30;;
32912;SDS011;19266;45.580;-122.680;2022-09-01T11:25:13;12.45;;;9.15;;
32912;SDS011;19266;45.580;-122.680;2022-09-01T11:30:20;21.10;;;9.83;;
32912;SDS011;19266;45.580;-122.680;2022-09-01T11:32:51;13.48;;;9.70;;
32912;SDS011;19266;45.580;-122.680;2022-09-01T11:35:21;16.73;;;10.58;;
32912;SDS011;19266;45.580;-122.680;2022-09-01T11:37:51;14.28;;;10.28;;
32912;SDS011;19266;45.580;-122.680;2022-09-01T11:40:22;14.90;;;10.00;;
32912;SDS011;19266;45.580;-122.680;2022-09-01T11:42:51;16.80;;;10.50;;
32912;SDS011;19266;45.580;-122.680;2022-09-01T11:45:28;16.52;;;11.80;;
32912;SDS011;19266;45.580;-122.680;2022-09-01T11:48:04;18.00;;;11.95;;
32912;SDS011;19266;45.580;-122.680;2022-09-01T11:50:29;21.52;;;12.65;;
32912;SDS011;19266;45.580;-122.680;2022-09-01T11:55:31;17.98;;;11.33;;
32912;SDS011;19266;45.580;-122.680;2022-09-01T11:58:01;16.02;;;11.53;;
32912;SDS011;19266;45.580;-122.680;2022-09-01T12:00:34;16.67;;;10.78;;
32912;SDS011;19266;45.580;-122.680;2022-09-01T12:03:26;17.05;;;11.33;;
32912;SDS011;19266;45.580;-122.680;2022-09-01T12:05:57;16.73;;;10.70;;
32912;SDS011;19266;45.580;-122.680;2022-09-01T12:08:30;28.87;;;11.43;;
32912;SDS011;19266;45.580;-122.680;2022-09-01T12:11:04;21.05;;;11.90;;
32912;SDS011;19266;45.580;-122.680;2022-09-01T12:13:34;16.52;;;11.08;;
32912;SDS011;19266;45.580;-122.680;2022-09-01T12:16:04;29.15;;;12.15;;
32912;SDS011;19266;45.580;-122.680;2022-09-01T12:18:34;21.82;;;12.40;;
32912;SDS011;19266;45.580;-122.680;2022-09-01T12:21:06;18.45;;;12.50;;
32912;SDS011;19266;45.580;-122.680;2022-09-01T12:23:36;17.55;;;11.95;;
32912;SDS011;19266;45.580;-122.680;2022-09-01T12:26:24;18.52;;;12.07;;
32912;SDS011;19266;45.580;-122.680;2022-09-01T12:28:53;19.55;;;13.03;;
32912;SDS011;19266;45.580;-122.680;2022-09-01T12:31:22;18.00;;;12.37;;
32912;SDS011;19266;45.580;-122.680;2022-09-01T12:33:52;19.92;;;12.45;;
32912;SDS011;19266;45.580;-122.680;2022-09-01T12:36:30;18.48;;;12.58;;
32912;SDS011;19266;45.580;-122.680;2022-09-01T12:39:17;19.35;;;12.20;;
32912;SDS011;19266;45.580;-122.680;2022-09-01T12:41:33;19.62;;;12.35;;
32912;SDS011;19266;45.580;-122.680;2022-09-01T12:46:48;16.05;;;11.28;;
32912;SDS011;19266;45.580;-122.680;2022-09-01T12:49:18;17.42;;;11.25;;
32912;SDS011;19266;45.580;-122.680;2022-09-01T12:51:47;17.12;;;11.18;;
32912;SDS011;19266;45.580;-122.680;2022-09-01T12:54:22;18.27;;;11.55;;
32912;SDS011;19266;45.580;-122.680;2022-09-01T12:56:47;18.10;;;12.20;;
32912;SDS011;19266;45.580;-122.680;2022-09-01T12:59:22;19.42;;;12.37;;
32912;SDS011;19266;45.580;-122.680;2022-09-01T13:01:51;17.10;;;11.55;;
32912;SDS011;19266;45.580;-122.680;2022-09-01T13:07:06;16.93;;;11.38;;
32912;SDS011;19266;45.580;-122.680;2022-09-01T13:09:31;18.27;;;10.95;;
32912;SDS011;19266;45.580;-122.680;2022-09-01T13:12:15;18.20;;;10.85;;
32912;SDS011;19266;45.580;-122.680;2022-09-01T13:14:39;14.65;;;10.00;;
32912;SDS011;19266;45.580;-122.680;2022-09-01T13:17:09;13.93;;;10.35;;
32912;SDS011;19266;45.580;-122.680;2022-09-01T13:19:39;20.02;;;11.95;;
32912;SDS011;19266;45.580;-122.680;2022-09-01T13:22:08;17.12;;;10.90;;
32912;SDS011;19266;45.580;-122.680;2022-09-01T13:24:38;17.70;;;12.05;;
32912;SDS011;19266;45.580;-122.680;2022-09-01T13:27:07;20.02;;;11.70;;
32912;SDS011;19266;45.580;-122.680;2022-09-01T13:29:37;17.90;;;11.63;;
32912;SDS011;19266;45.580;-122.680;2022-09-01T13:32:06;18.67;;;12.18;;
32912;SDS011;19266;45.580;-122.680;2022-09-01T13:34:36;18.87;;;11.22;;
32912;SDS011;19266;45.580;-122.680;2022-09-01T13:37:06;18.87;;;11.83;;
32912;SDS011;19266;45.580;-122.680;2022-09-01T13:39:35;20.77;;;12.47;;
32912;SDS011;19266;45.580;-122.680;2022-09-01T13:42:04;19.57;;;12.58;;
32912;SDS011;19266;45.580;-122.680;2022-09-01T13:44:34;20.75;;;12.47;;
32912;SDS011;19266;45.580;-122.680;2022-09-01T13:47:03;20.65;;;12.75;;
32912;SDS011;19266;45.580;-122.680;2022-09-01T13:49:32;22.52;;;12.80;;
32912;SDS011;19266;45.580;-122.680;2022-09-01T13:52:01;19.82;;;12.07;;
32912;SDS011;19266;45.580;-122.680;2022-09-01T13:54:31;20.75;;;13.08;;
32912;SDS011;19266;45.580;-122.680;2022-09-01T13:57:00;22.73;;;13.83;;
32912;SDS011;19266;45.580;-122.680;2022-09-01T13:59:29;23.55;;;14.18;;
32912;SDS011;19266;45.580;-122.680;2022-09-01T14:01:59;23.32;;;13.05;;
32912;SDS011;19266;45.580;-122.680;2022-09-01T14:04:28;23.50;;;13.62;;
32912;SDS011;19266;45.580;-122.680;2022-09-01T14:06:57;24.77;;;14.90;;
32912;SDS011;19266;45.580;-122.680;2022-09-01T14:09:26;22.82;;;13.70;;
32912;SDS011;19266;45.580;-122.680;2022-09-01T14:11:55;22.93;;;13.55;;
32912;SDS011;19266;45.580;-122.680;2022-09-01T14:14:25;23.12;;;13.90;;
32912;SDS011;19266;45.580;-122.680;2022-09-01T14:16:54;22.90;;;13.65;;
32912;SDS011;19266;45.580;-122.680;2022-09-01T14:19:23;22.42;;;13.03;;
32912;SDS011;19266;45.580;-122.680;2022-09-01T14:21:52;23.60;;;13.65;;
32912;SDS011;19266;45.580;-122.680;2022-09-01T14:24:21;22.27;;;13.93;;
32912;SDS011;19266;45.580;-122.680;2022-09-01T14:26:50;22.95;;;13.45;;
32912;SDS011;19266;45.580;-122.680;2022-09-01T14:29:19;22.40;;;13.58;;
32912;SDS011;19266;45.580;-122.680;2022-09-01T14:31:49;21.00;;;13.75;;
32912;SDS011;19266;45.580;-122.680;2022-09-01T14:34:18;21.35;;;13.75;;
32912;SDS011;19266;45.580;-122.680;2022-09-01T14:36:47;24.20;;;13.40;;
32912;SDS011;19266;45.580;-122.680;2022-09-01T14:39:16;22.22;;;12.65;;
32912;SDS011;19266;45.580;-122.680;2022-09-01T14:41:45;18.60;;;11.48;;
32912;SDS011;19266;45.580;-122.680;2022-09-01T14:44:14;21.00;;;12.40;;
32912;SDS011;19266;45.580;-122.680;2022-09-01T14:46:44;20.45;;;12.63;;
32912;SDS011;19266;45.580;-122.680;2022-09-01T14:49:13;19.73;;;13.25;;
32912;SDS011;19266;45.580;-122.680;2022-09-01T14:51:43;22.22;;;12.95;;
32912;SDS011;19266;45.580;-122.680;2022-09-01T14:54:13;19.67;;;12.07;;
32912;SDS011;19266;45.580;-122.680;2022-09-01T14:56:42;21.00;;;12.80;;
32912;SDS011;19266;45.580;-122.680;2022-09-01T14:59:11;20.88;;;13.20;;